Weather observations for the past three days for
Oklahoma City, Wiley Post Airport
Imperial (Metric)
Date Time (cdt) Wind (mph) Vis. (mi.) Weather Sky Cond. Temperature (ºF) Relative Humidity Wind Chill (°F) Heat Index (°F) Pressure Precipitation (in)
Air Dwpt 6 hour altimeter (in) sea level (mb) 1 hr 3 hr 6 hr
Max. Min.
01 15:53 S 14 G 20 10.00 A Few Clouds FEW095 100 57 24% 99 29.96 1012.4
01 14:53 S 9 10.00 Partly Cloudy SCT100 100 57 24% 99 29.98 1013.4
01 13:53 S 8 G 23 10.00 Partly Cloudy SCT095 98.1 57 25% 97 30 1014.0
01 12:53 S 13 G 20 10.00 Partly Cloudy SCT085 98.1 57.9 99 75.9 26% 97 30.03 1014.8
01 11:53 SW 13 10.00 Fair CLR 96.1 60.1 30% 96 30.05 1015.4
01 10:53 SW 13 10.00 Fair CLR 91.9 61 36% 92 30.05 1015.6
01 09:53 S 12 10.00 Fair CLR 88 61 40% 88 30.05 1015.7
01 08:53 SW 9 10.00 Fair CLR 82.9 62.1 49% 84 30.06 1016.0
01 07:53 S 7 10.00 Fair CLR 78.1 61 56% 80 30.04 1015.4
01 06:53 S 9 10.00 Fair CLR 77 61 82 75.9 58% 79 30.02 1014.8
01 05:53 S 12 10.00 Fair CLR 78.1 60.1 54% 79 30.02 1014.5
01 03:53 S 10 10.00 Fair CLR 79 57.9 49% 80 30 1014.0
01 02:53 S 9 10.00 Fair CLR 75.9 57.9 54% 78 30 1013.8
01 01:53 S 7 10.00 Fair CLR 77 57.9 52% 79 30 1014.0
01 00:53 S 9 10.00 Fair CLR 82 57 97 82 43% 82 30 1013.9
31 23:53 S 10 10.00 Fair CLR 84 57 40% 83 29.99 1013.6
31 22:53 S 14 10.00 Fair CLR 88 57 35% 87 29.99 1013.5
31 21:53 S 14 10.00 Fair CLR 90 55.9 32% 88 29.98 1013.1
31 20:53 SE 10 10.00 Fair CLR 91.9 55 29% 90 29.95 1012.2
31 19:53 S 12 10.00 Fair CLR 93.9 54 26% 92 29.93 1011.7
31 18:53 S 14 10.00 Fair CLR 97 55.9 102 97 25% 95 29.93 1011.6
31 17:53 S 13 G 23 10.00 Fair CLR 99 57 25% 98 29.93 1011.6
31 16:53 SE 14 G 25 10.00 Partly Cloudy SCT095 100 57.9 25% 100 29.94 1011.7
31 15:53 S 16 10.00 Partly Cloudy SCT095 100.9 57.9 24% 101 29.95 1012.2
31 14:53 S 17 G 26 10.00 Partly Cloudy SCT085 100.9 59 25% 101 29.97 1012.8
31 13:53 S 7 G 22 10.00 A Few Clouds FEW085 98.1 59 27% 98 29.99 1013.4
31 12:53 S 15 G 20 10.00 Fair CLR 99 61 100 77 29% 100 30.01 1014.0
31 11:53 S 14 10.00 Fair CLR 97 64 34% 99 30.03 1014.6
31 10:53 SW 15 10.00 Fair CLR 93.9 64.9 38% 96 30.03 1014.8
31 09:53 S 14 10.00 Fair CLR 90 64.9 44% 92 30.03 1014.9
31 08:53 S 13 10.00 Fair CLR 84.9 63 48% 86 30.03 1014.9
31 07:53 S 10 10.00 Fair CLR 80.1 61 52% 81 30.01 1014.4
31 06:53 S 9 10.00 Fair CLR 78.1 60.1 84.9 78.1 54% 79 29.99 1013.5
31 05:53 S 12 10.00 Fair CLR 79 59 50% 80 29.97 1012.7
31 04:53 S 9 10.00 Fair CLR 80.1 59 49% 81 29.96 1012.5
31 03:53 S 13 10.00 Fair CLR 82 59 46% 82 29.95 1012.1
31 02:53 S 12 10.00 Fair CLR 82 59 46% 82 29.95 1012.1
31 01:53 S 14 10.00 Fair CLR 84 59 43% 84 29.95 1012.0
31 00:53 S 14 10.00 Fair CLR 84 59 99 84 43% 84 29.95 1011.9
30 23:53 S 14 10.00 Fair CLR 86 59 40% 85 29.94 1011.6
30 22:53 S 16 10.00 Fair CLR 88 59 38% 87 29.93 1011.4
30 21:53 S 18 G 24 10.00 Fair CLR 91 60.1 35% 91 29.92 1011.1
30 20:53 S 14 G 21 10.00 Fair CLR 93 57.9 31% 92 29.89 1010.1
30 19:53 S 12 10.00 Fair CLR 95 57 28% 94 29.88 1009.8
30 18:53 S 14 10.00 Fair CLR 99 57.9 102.9 99 26% 98 29.87 1009.6
30 17:53 S 15 10.00 Fair CLR 100.9 57 23% 100 29.87 1009.5
30 16:53 S 12 G 22 10.00 Fair CLR 102.9 57.9 23% 103 29.88 1009.6
30 15:53 S 16 G 22 10.00 A Few Clouds FEW095 102 59 24% 102 29.9 1010.4
30 14:53 S 16 G 29 10.00 A Few Clouds FEW090 102.9 59 24% 103 29.92 1011.1
30 13:53 SW 16 G 25 10.00 Fair CLR 100.9 59 25% 101 29.94 1011.6
30 12:53 SW 20 G 28 10.00 Fair CLR 99 63 100 77 31% 101 29.96 1012.2
30 11:53 SW 20 G 28 10.00 Fair CLR 98.1 63 32% 100 29.98 1013.0
30 10:53 S 20 G 28 10.00 Fair CLR 93.9 64 37% 96 29.98 1013.2
30 09:53 S 17 G 25 10.00 Fair CLR 90 64 42% 91 29.99 1013.4
30 08:53 S 17 10.00 Fair CLR 84 62.1 48% 85 29.99 1013.6
30 07:53 S 14 10.00 Fair CLR 79 61 54% 80 29.98 1013.4
30 06:53 S 16 10.00 Fair CLR 78.1 61 84 78.1 56% 80 29.97 1012.9
30 05:53 S 13 10.00 Fair CLR 78.1 60.1 54% 79 29.97 1012.8
30 04:53 S 14 10.00 Fair CLR 79 60.1 52% 80 29.96 1012.3
30 03:53 S 15 10.00 Fair CLR 80.1 60.1 51% 81 29.95 1012.0
30 02:53 S 15 10.00 Fair CLR 82 59 46% 82 29.95 1011.9
30 01:53 S 14 10.00 Fair CLR 82.9 59 44% 83 29.95 1012.2
30 00:53 S 14 10.00 Fair CLR 84 59 99 84 43% 84 29.96 1012.2
29 23:53 S 13 10.00 Fair CLR 86 60.1 42% 86 29.96 1012.3
29 22:53 S 16 10.00 Fair CLR 89.1 59 36% 88 29.96 1012.4
29 21:53 S 17 10.00 Fair CLR 91.9 57.9 32% 91 29.94 1011.8
29 20:53 SE 15 10.00 Fair CLR 93 57.9 31% 92 29.91 1010.9
29 19:53 SE 20 G 25 10.00 Fair CLR 95 57.9 29% 94 29.9 1010.5
29 18:53 SE 16 G 24 10.00 Fair CLR 99 57 104 98.1 25% 98 29.91 1010.7
29 17:53 S 16 G 24 10.00 Fair CLR 100.9 57 23% 100 29.91 1010.9
29 16:53 S 15 G 23 10.00 Fair CLR 102 57 23% 101 29.93 1011.3
Date Time (cdt) Wind (mph) Vis. (mi.) Weather Sky Cond. Air Dwpt Max. Min. Relative Humidity Wind Chill (°F) Heat Index (°F) altimeter (in) sea level (mb) 1 hr 3 hr 6 hr
6 hour
Temperature (ºF) Pressure Precipitation (in)